Time;durP1;ratioP1;P1;durP2;ratioP2;P2;SDS_P1;SDS_P2;PMS_P1;PMS_P2;Temp;Humidity;BMP_temperature;BMP_pressure;BME280_temperature;BME280_humidity;BME280_pressure;Samples;Min_cycle;Max_cycle;Signal;HPM_P1;HPM_P2
2023/08/14 00:01:27;;;;;;;6.38;4.35;;;23.20;76.80;;;;;;5063059;28;20756;-62
2023/08/14 00:03:53;;;;;;;11.35;5.10;;;23.20;76.90;;;;;;5067900;28;20032;-60
2023/08/14 00:06:19;;;;;;;18.05;5.03;;;23.20;77.00;;;;;;5066229;28;20033;-61
2023/08/14 00:08:44;;;;;;;27.05;7.03;;;23.30;77.00;;;;;;5063931;28;20048;-61
2023/08/14 00:11:10;;;;;;;13.65;5.72;;;23.20;77.10;;;;;;5066232;28;20056;-62
2023/08/14 00:13:49;;;;;;;10.68;4.78;;;23.30;77.10;;;;;;5057524;28;20064;-61
2023/08/14 00:16:16;;;;;;;18.02;5.38;;;23.30;78.10;;;;;;5058754;28;20467;-61
2023/08/14 00:18:41;;;;;;;13.68;5.45;;;23.20;77.20;;;;;;5062401;28;20082;-61
2023/08/14 00:21:07;;;;;;;21.00;5.68;;;23.20;77.50;;;;;;5074390;28;20559;-61
2023/08/14 00:23:32;;;;;;;17.80;5.80;;;23.20;77.60;;;;;;5062707;28;20391;-62
2023/08/14 00:25:58;;;;;;;26.33;6.65;;;23.20;77.60;;;;;;5070352;28;20511;-61
2023/08/14 00:28:24;;;;;;;29.08;5.15;;;23.20;77.70;;;;;;5064762;28;20432;-62
2023/08/14 00:30:49;;;;;;;16.50;5.03;;;23.20;78.00;;;;;;5062505;28;20112;-61
2023/08/14 00:33:15;;;;;;;30.15;4.80;;;23.20;78.10;;;;;;5061581;28;20029;-62
2023/08/14 00:35:41;;;;;;;21.17;4.60;;;23.20;78.10;;;;;;5060349;28;20028;-61
2023/08/14 00:38:06;;;;;;;24.13;4.45;;;23.20;78.30;;;;;;5069588;28;20032;-61
2023/08/14 00:40:32;;;;;;;14.02;3.53;;;23.10;78.30;;;;;;5069533;28;20032;-61
2023/08/14 00:42:58;;;;;;;19.00;3.35;;;23.10;78.40;;;;;;5067538;28;20038;-61
2023/08/14 00:45:23;;;;;;;25.77;4.20;;;23.20;78.20;;;;;;5070850;28;20043;-62
2023/08/14 00:47:49;;;;;;;16.17;3.70;;;23.20;78.20;;;;;;5066093;28;20107;-61
2023/08/14 00:50:16;;;;;;;32.47;4.43;;;23.10;78.10;;;;;;5063950;28;20103;-61
2023/08/14 00:52:46;;;;;;;25.08;4.43;;;23.10;78.10;;;;;;5070348;28;20032;-61
2023/08/14 00:55:18;;;;;;;15.55;4.65;;;23.10;78.40;;;;;;5064642;28;20040;-60
2023/08/14 00:57:44;;;;;;;12.52;4.43;;;23.00;79.10;;;;;;5061654;28;20028;-61
2023/08/14 01:00:11;;;;;;;18.00;4.82;;;23.00;78.80;;;;;;5057195;28;20028;-60
2023/08/14 01:02:38;;;;;;;34.13;5.38;;;23.00;79.00;;;;;;5069272;28;20476;-61
2023/08/14 01:05:04;;;;;;;30.05;5.80;;;23.00;79.10;;;;;;5070392;28;20036;-61
2023/08/14 01:07:32;;;;;;;22.85;4.50;;;23.00;79.10;;;;;;5067225;28;20040;-61
2023/08/14 01:09:58;;;;;;;36.67;4.90;;;22.90;79.10;;;;;;5066794;28;20094;-61
2023/08/14 01:12:30;;;;;;;36.05;5.05;;;22.90;79.00;;;;;;5067900;28;20066;-60
2023/08/14 01:15:03;;;;;;;38.88;4.88;;;22.90;79.70;;;;;;5064457;28;20033;-61
2023/08/14 01:17:32;;;;;;;10.88;4.40;;;22.90;80.10;;;;;;5062177;28;20107;-60
2023/08/14 01:19:58;;;;;;;11.55;5.03;;;22.80;79.50;;;;;;5060233;28;20032;-62
2023/08/14 01:22:33;;;;;;;14.20;5.45;;;22.80;79.70;;;;;;5063164;28;20030;-60
2023/08/14 01:24:59;;;;;;;16.80;5.60;;;22.80;80.70;;;;;;5060297;28;20455;-61
2023/08/14 01:27:26;;;;;;;9.63;5.00;;;22.90;80.10;;;;;;5058039;28;20066;-61
2023/08/14 01:29:57;;;;;;;7.72;5.47;;;22.80;80.20;;;;;;5061923;28;20078;-61
2023/08/14 01:32:22;;;;;;;6.60;5.25;;;22.90;80.80;;;;;;5063705;28;20056;-60
2023/08/14 01:34:48;;;;;;;14.65;4.85;;;22.90;80.20;;;;;;5064896;28;20487;-61
2023/08/14 01:37:21;;;;;;;10.05;5.55;;;22.90;80.10;;;;;;5067174;28;20122;-62
2023/08/14 01:39:53;;;;;;;11.30;5.63;;;22.90;80.30;;;;;;5065139;28;20017;-61
2023/08/14 01:42:32;;;;;;;8.00;5.20;;;23.00;80.40;;;;;;5067402;28;20019;-62
2023/08/14 01:45:02;;;;;;;10.60;4.63;;;22.90;80.70;;;;;;5068440;28;20044;-60
2023/08/14 01:47:30;;;;;;;5.32;4.82;;;22.90;80.10;;;;;;5058530;28;20037;-61
2023/08/14 01:49:56;;;;;;;5.10;4.60;;;23.00;80.00;;;;;;5064516;28;20021;-61
2023/08/14 01:52:23;;;;;;;30.42;4.63;;;23.00;79.90;;;;;;5060973;28;20423;-60
2023/08/14 01:54:49;;;;;;;27.20;4.03;;;23.00;79.60;;;;;;5067073;28;20521;-62
2023/08/14 01:57:15;;;;;;;6.28;3.53;;;23.00;79.40;;;;;;5062631;28;20033;-61
2023/08/14 01:59:43;;;;;;;7.50;3.95;;;23.00;79.30;;;;;;5064209;28;20047;-61
2023/08/14 02:02:10;;;;;;;14.00;3.40;;;23.00;79.30;;;;;;5056867;28;20044;-61
2023/08/14 02:04:35;;;;;;;7.28;3.35;;;23.00;79.10;;;;;;5066270;28;20025;-61
2023/08/14 02:07:01;;;;;;;8.88;3.05;;;23.00;78.80;;;;;;5056271;28;20025;-61
2023/08/14 02:09:27;;;;;;;9.68;3.70;;;23.00;78.60;;;;;;5072019;28;20052;-60
2023/08/14 02:11:53;;;;;;;9.13;3.42;;;23.00;78.50;;;;;;5065497;28;20036;-61
2023/08/14 02:14:19;;;;;;;20.77;4.10;;;22.90;78.60;;;;;;5071383;28;20378;-60
2023/08/14 02:16:45;;;;;;;16.92;3.63;;;22.90;78.70;;;;;;5066492;28;20033;-61
2023/08/14 02:19:10;;;;;;;20.30;2.80;;;23.00;78.70;;;;;;5069543;28;20068;-61
2023/08/14 02:21:36;;;;;;;14.65;3.58;;;22.90;78.60;;;;;;5069312;28;20034;-61
2023/08/14 02:24:02;;;;;;;25.40;3.95;;;22.90;78.60;;;;;;5063358;28;20394;-61
2023/08/14 02:26:27;;;;;;;31.77;4.30;;;22.90;78.70;;;;;;5065514;28;20400;-60
2023/08/14 02:28:53;;;;;;;34.35;4.25;;;22.80;78.60;;;;;;5017171;28;20046;-60
2023/08/14 02:31:19;;;;;;;14.55;4.05;;;22.80;78.70;;;;;;5062861;28;20455;-60
2023/08/14 02:33:45;;;;;;;53.63;5.47;;;22.80;78.80;;;;;;5065029;28;20047;-61
2023/08/14 02:36:11;;;;;;;57.88;4.90;;;22.80;78.80;;;;;;5061311;28;20017;-61
2023/08/14 02:38:36;;;;;;;29.38;4.63;;;22.80;79.00;;;;;;5063632;28;20771;-60
2023/08/14 02:41:06;;;;;;;6.68;4.68;;;22.80;79.00;;;;;;5066862;28;20029;-62
2023/08/14 02:43:32;;;;;;;6.32;5.15;;;22.80;79.20;;;;;;5065866;28;20068;-61
2023/08/14 02:45:58;;;;;;;10.57;4.93;;;22.70;79.20;;;;;;5061079;28;20725;-60
2023/08/14 02:48:23;;;;;;;24.48;4.88;;;22.70;79.30;;;;;;5064118;28;20028;-62
2023/08/14 02:50:49;;;;;;;4.93;4.15;;;22.70;78.80;;;;;;5067949;28;20465;-61
2023/08/14 02:53:15;;;;;;;4.70;4.22;;;22.70;78.90;;;;;;5067696;28;20642;-61
2023/08/14 02:55:41;;;;;;;4.00;3.60;;;22.60;79.30;;;;;;5073472;28;20036;-60
2023/08/14 02:58:06;;;;;;;4.95;3.33;;;22.60;79.20;;;;;;5076529;28;20106;-61
2023/08/14 03:00:32;;;;;;;4.60;3.38;;;22.50;79.30;;;;;;5063197;28;20114;-62
2023/08/14 03:02:57;;;;;;;4.15;3.00;;;22.50;79.60;;;;;;5057756;28;20036;-62
2023/08/14 03:05:23;;;;;;;3.65;3.00;;;22.50;79.60;;;;;;5054187;28;20028;-62
2023/08/14 03:07:49;;;;;;;6.13;2.75;;;22.50;79.70;;;;;;5069060;28;20029;-61
2023/08/14 03:10:14;;;;;;;3.03;2.50;;;22.50;79.10;;;;;;5064490;28;20060;-60
2023/08/14 03:12:40;;;;;;;4.15;2.20;;;22.50;78.40;;;;;;5068264;28;20024;-60
2023/08/14 03:15:06;;;;;;;3.42;2.25;;;22.60;77.20;;;;;;5065358;28;20116;-62
2023/08/14 03:17:33;;;;;;;4.35;2.08;;;22.60;76.80;;;;;;5056929;28;20025;-60
2023/08/14 03:19:58;;;;;;;4.40;1.55;;;22.60;76.70;;;;;;5067832;28;20078;-60
2023/08/14 03:22:24;;;;;;;2.33;1.70;;;22.60;76.30;;;;;;5059663;28;20053;-60
2023/08/14 03:24:50;;;;;;;3.40;1.70;;;22.70;75.90;;;;;;5068457;28;20025;-60
2023/08/14 03:27:15;;;;;;;3.50;1.75;;;22.70;75.00;;;;;;5070527;28;20040;-61
2023/08/14 03:29:41;;;;;;;5.30;1.77;;;22.70;74.60;;;;;;5065662;28;20059;-61
2023/08/14 03:32:06;;;;;;;2.70;1.88;;;22.70;74.20;;;;;;5067557;28;20036;-62
2023/08/14 03:34:32;;;;;;;2.47;1.40;;;22.70;73.80;;;;;;5066911;28;20028;-62
2023/08/14 03:36:58;;;;;;;1.17;1.08;;;22.70;73.60;;;;;;5068138;28;20023;-62
2023/08/14 03:39:23;;;;;;;2.92;1.30;;;22.60;73.40;;;;;;5067242;28;20055;-61
2023/08/14 03:41:49;;;;;;;2.20;1.25;;;22.60;73.30;;;;;;5067558;28;20033;-61
2023/08/14 03:44:15;;;;;;;4.75;1.52;;;22.70;73.20;;;;;;5059439;28;20110;-62
2023/08/14 03:46:40;;;;;;;7.70;1.50;;;22.70;73.00;;;;;;5067820;28;20519;-61
2023/08/14 03:49:06;;;;;;;3.13;1.50;;;22.60;73.00;;;;;;5063018;28;20475;-62
2023/08/14 03:51:32;;;;;;;3.33;1.20;;;22.60;72.80;;;;;;5055946;28;20564;-61
2023/08/14 03:53:57;;;;;;;5.32;1.40;;;22.70;72.80;;;;;;5062508;28;20483;-60
2023/08/14 03:56:23;;;;;;;2.17;1.30;;;22.60;72.70;;;;;;5059734;28;20028;-61
2023/08/14 03:58:48;;;;;;;6.22;1.80;;;22.60;72.50;;;;;;5059947;28;20388;-60
2023/08/14 04:01:14;;;;;;;5.60;1.48;;;22.70;72.60;;;;;;5061991;28;20027;-61
2023/08/14 04:03:40;;;;;;;3.72;1.80;;;22.60;72.70;;;;;;5064749;28;20046;-61
2023/08/14 04:06:06;;;;;;;4.85;1.38;;;22.60;72.70;;;;;;5064586;28;20425;-61
2023/08/14 04:08:31;;;;;;;3.20;1.58;;;22.60;72.90;;;;;;5064430;28;20047;-61
2023/08/14 04:10:57;;;;;;;4.43;1.45;;;22.60;72.90;;;;;;5059331;28;20032;-60
2023/08/14 04:13:24;;;;;;;3.78;1.38;;;22.50;73.00;;;;;;5068436;28;20036;-60
2023/08/14 04:15:51;;;;;;;1.73;1.30;;;22.50;73.20;;;;;;5062322;28;20028;-60
2023/08/14 04:18:16;;;;;;;4.88;1.45;;;22.50;73.60;;;;;;5061782;28;20111;-61
2023/08/14 04:20:42;;;;;;;1.95;1.23;;;22.50;73.60;;;;;;5056397;28;20111;-62
2023/08/14 04:23:08;;;;;;;2.22;1.63;;;22.40;73.70;;;;;;5085210;28;20108;-61
2023/08/14 04:25:34;;;;;;;3.55;1.50;;;22.40;73.90;;;;;;5073348;28;20016;-60
2023/08/14 04:27:59;;;;;;;2.78;1.60;;;22.40;73.90;;;;;;5058056;28;20562;-62
2023/08/14 04:30:25;;;;;;;5.45;1.83;;;22.40;74.00;;;;;;5066751;28;20506;-60
2023/08/14 04:32:51;;;;;;;3.28;1.80;;;22.40;74.10;;;;;;5066514;28;20025;-60
2023/08/14 04:35:17;;;;;;;2.75;1.30;;;22.30;74.00;;;;;;5065474;28;20083;-62
2023/08/14 04:37:43;;;;;;;3.25;1.95;;;22.30;74.20;;;;;;5070578;28;20029;-61
2023/08/14 04:40:09;;;;;;;2.10;1.40;;;22.30;74.30;;;;;;5072186;28;20099;-61
2023/08/14 04:42:35;;;;;;;2.60;1.25;;;22.20;74.40;;;;;;5068260;28;20024;-61
2023/08/14 04:45:02;;;;;;;8.75;1.63;;;22.20;74.50;;;;;;5062107;28;20075;-61
2023/08/14 04:47:28;;;;;;;2.33;1.40;;;22.20;74.50;;;;;;5068064;28;20037;-61
2023/08/14 04:49:53;;;;;;;5.22;1.48;;;22.20;74.70;;;;;;5069822;28;20111;-60
2023/08/14 04:52:20;;;;;;;2.65;1.50;;;22.20;74.90;;;;;;5064770;28;20371;-61
2023/08/14 04:54:46;;;;;;;22.38;14.35;;;22.10;74.90;;;;;;5059101;28;20087;-61
2023/08/14 04:57:12;;;;;;;16.15;8.75;;;22.20;74.80;;;;;;5064440;28;20027;-62
2023/08/14 04:59:37;;;;;;;7.40;4.30;;;22.10;74.70;;;;;;5066071;28;20033;-61
2023/08/14 05:02:04;;;;;;;7.22;2.40;;;22.10;74.70;;;;;;5061033;28;20036;-61
2023/08/14 05:04:29;;;;;;;7.55;2.17;;;22.10;74.70;;;;;;5068086;28;20569;-62
2023/08/14 05:06:55;;;;;;;4.35;2.90;;;22.10;74.90;;;;;;5067224;28;20109;-60
2023/08/14 05:09:21;;;;;;;4.63;3.10;;;22.10;75.10;;;;;;5074288;28;20039;-61
2023/08/14 05:11:46;;;;;;;4.40;2.72;;;22.10;75.40;;;;;;5068013;28;20052;-62
2023/08/14 05:14:12;;;;;;;2.58;2.03;;;22.10;75.40;;;;;;5065892;28;20037;-62
2023/08/14 05:16:38;;;;;;;3.20;1.90;;;22.10;75.40;;;;;;5061024;28;20480;-61
2023/08/14 05:19:03;;;;;;;2.85;1.90;;;22.10;75.30;;;;;;5067826;28;20021;-62
2023/08/14 05:21:29;;;;;;;3.63;2.08;;;22.20;75.50;;;;;;5071870;28;20482;-61
2023/08/14 05:23:55;;;;;;;4.88;1.98;;;22.30;75.70;;;;;;5067613;28;20591;-61
2023/08/14 05:26:20;;;;;;;3.20;2.03;;;22.40;75.70;;;;;;5065603;28;20018;-62
2023/08/14 05:28:46;;;;;;;4.82;1.58;;;22.40;75.50;;;;;;4956544;28;20139;-62
2023/08/14 05:31:12;;;;;;;1.58;1.40;;;22.50;75.90;;;;;;5064526;28;20025;-61
2023/08/14 05:33:37;;;;;;;2.22;1.60;;;22.60;75.10;;;;;;5063039;28;20033;-60
2023/08/14 05:36:03;;;;;;;2.85;1.60;;;22.80;75.10;;;;;;5067911;28;20041;-61
2023/08/14 05:38:29;;;;;;;2.10;1.50;;;22.80;75.20;;;;;;5070331;28;20103;-62
2023/08/14 05:40:54;;;;;;;1.75;1.58;;;22.90;75.20;;;;;;5071432;28;20398;-62
2023/08/14 05:43:20;;;;;;;3.78;2.33;;;23.00;75.10;;;;;;5063142;28;20534;-61
2023/08/14 05:45:46;;;;;;;5.75;1.90;;;23.10;74.80;;;;;;5069142;28;20037;-61
2023/08/14 05:48:13;;;;;;;2.70;1.48;;;23.30;74.50;;;;;;5060368;28;20036;-62
2023/08/14 05:50:39;;;;;;;5.50;1.52;;;23.40;74.10;;;;;;5063073;28;20024;-61
2023/08/14 05:53:06;;;;;;;1.95;1.50;;;23.50;73.90;;;;;;5066090;28;20028;-61
2023/08/14 05:55:38;;;;;;;4.57;1.30;;;23.60;73.30;;;;;;5064965;28;20398;-61
2023/08/14 05:58:04;;;;;;;2.58;1.45;;;23.70;72.90;;;;;;5068744;28;20047;-62
2023/08/14 06:00:30;;;;;;;2.75;1.55;;;23.80;72.90;;;;;;5065078;28;20111;-62
2023/08/14 06:02:56;;;;;;;1.63;1.27;;;23.80;72.70;;;;;;5056800;28;20033;-62
2023/08/14 06:05:23;;;;;;;2.88;1.60;;;23.90;72.60;;;;;;5063415;28;20078;-62
2023/08/14 06:07:50;;;;;;;2.55;1.50;;;23.90;72.30;;;;;;5063730;28;20083;-62
2023/08/14 06:10:16;;;;;;;3.95;2.10;;;24.00;72.20;;;;;;5064203;28;20119;-63
2023/08/14 06:12:44;;;;;;;3.72;2.10;;;24.00;72.00;;;;;;5059528;28;20107;-63
2023/08/14 06:15:10;;;;;;;3.28;2.05;;;24.00;72.10;;;;;;5054590;28;20040;-62
2023/08/14 06:17:36;;;;;;;4.60;2.28;;;24.00;71.90;;;;;;5061580;28;20103;-63
2023/08/14 06:20:02;;;;;;;4.65;2.55;;;24.00;72.00;;;;;;5065276;28;20112;-62
2023/08/14 06:22:29;;;;;;;5.35;1.75;;;24.00;72.10;;;;;;5068614;28;20028;-62
2023/08/14 06:24:55;;;;;;;5.50;2.28;;;24.00;72.00;;;;;;5060103;28;20032;-62
2023/08/14 06:27:20;;;;;;;4.97;2.28;;;24.00;71.90;;;;;;5063697;28;20031;-62
2023/08/14 06:29:47;;;;;;;4.35;2.60;;;24.10;71.80;;;;;;5058239;28;20040;-62
2023/08/14 06:32:12;;;;;;;5.43;2.25;;;24.00;71.70;;;;;;5060211;28;20020;-64
2023/08/14 06:34:38;;;;;;;2.38;1.88;;;24.10;71.80;;;;;;5064909;28;20032;-62
2023/08/14 06:37:04;;;;;;;2.50;2.00;;;24.10;72.00;;;;;;5057144;28;20025;-62
2023/08/14 06:39:30;;;;;;;3.03;1.80;;;24.20;72.20;;;;;;5054855;28;20032;-62
2023/08/14 06:41:56;;;;;;;3.60;2.10;;;24.20;71.90;;;;;;5060546;28;20614;-62
2023/08/14 06:44:21;;;;;;;2.30;1.73;;;24.10;71.80;;;;;;5062083;28;20025;-63
2023/08/14 06:46:47;;;;;;;4.57;1.90;;;24.20;72.30;;;;;;5067794;28;20047;-63
2023/08/14 06:49:13;;;;;;;3.30;1.77;;;24.20;71.50;;;;;;5061781;28;20024;-63
2023/08/14 06:51:39;;;;;;;4.25;2.15;;;24.20;71.50;;;;;;5065843;28;20024;-61
2023/08/14 06:54:05;;;;;;;2.63;1.80;;;24.20;71.60;;;;;;5065832;28;20036;-62
2023/08/14 06:56:31;;;;;;;2.10;1.52;;;24.20;71.50;;;;;;5066231;28;20565;-63
2023/08/14 06:58:57;;;;;;;3.45;2.00;;;24.30;71.30;;;;;;5061192;28;20650;-63
2023/08/14 07:01:23;;;;;;;6.05;2.47;;;24.30;71.30;;;;;;5060110;28;20033;-63
2023/08/14 07:03:49;;;;;;;4.65;2.00;;;24.20;71.20;;;;;;5064788;28;20024;-62
2023/08/14 07:06:15;;;;;;;2.72;1.95;;;24.30;71.10;;;;;;5064246;28;20032;-62
2023/08/14 07:08:41;;;;;;;4.40;2.03;;;24.30;71.40;;;;;;5064605;28;20103;-62
2023/08/14 07:11:07;;;;;;;2.67;2.20;;;24.30;71.50;;;;;;5070672;28;20417;-62
2023/08/14 07:13:33;;;;;;;3.80;2.17;;;24.40;71.30;;;;;;5058991;28;20036;-62
2023/08/14 07:15:58;;;;;;;2.47;1.95;;;24.50;72.00;;;;;;5058244;28;20086;-62
2023/08/14 07:18:24;;;;;;;3.35;1.90;;;24.60;71.50;;;;;;5063592;28;20024;-62
2023/08/14 07:20:50;;;;;;;6.05;2.35;;;24.70;71.60;;;;;;5063836;28;20119;-62
2023/08/14 07:23:20;;;;;;;3.38;2.17;;;24.80;71.50;;;;;;5052580;28;20048;-62
2023/08/14 07:25:46;;;;;;;2.72;2.00;;;25.00;70.70;;;;;;5055834;28;20048;-62
2023/08/14 07:28:13;;;;;;;3.58;2.30;;;25.10;70.80;;;;;;5062870;28;20028;-62
2023/08/14 07:30:39;;;;;;;7.80;2.60;;;25.30;71.40;;;;;;5061134;28;20082;-62
2023/08/14 07:33:07;;;;;;;3.05;2.17;;;25.40;70.20;;;;;;5060875;28;20020;-62
2023/08/14 07:35:33;;;;;;;4.13;2.22;;;25.60;70.10;;;;;;5061798;28;20558;-62
2023/08/14 07:37:59;;;;;;;5.03;2.30;;;25.70;70.00;;;;;;5054945;28;20040;-62
2023/08/14 07:40:25;;;;;;;4.38;2.17;;;25.80;69.60;;;;;;5066417;28;20039;-62
2023/08/14 07:42:50;;;;;;;3.20;2.40;;;25.90;69.00;;;;;;5066607;28;20036;-62
2023/08/14 07:45:16;;;;;;;6.10;2.40;;;26.10;68.30;;;;;;5061636;28;20024;-63
2023/08/14 07:47:43;;;;;;;4.22;2.60;;;26.20;67.80;;;;;;5063653;28;20028;-62
2023/08/14 07:50:09;;;;;;;2.67;1.88;;;26.20;67.50;;;;;;5056519;28;20052;-62
2023/08/14 07:52:35;;;;;;;2.63;2.10;;;26.30;67.10;;;;;;5060471;28;20083;-62
2023/08/14 07:55:02;;;;;;;6.10;2.45;;;26.40;67.30;;;;;;5061842;28;20040;-62
2023/08/14 07:57:28;;;;;;;4.35;2.15;;;26.50;67.10;;;;;;5061697;28;20472;-62
2023/08/14 07:59:54;;;;;;;2.42;1.90;;;26.60;66.70;;;;;;5057483;28;20043;-61
2023/08/14 08:02:20;;;;;;;6.22;2.20;;;26.70;66.60;;;;;;5053330;28;20081;-63
2023/08/14 08:04:46;;;;;;;2.95;1.95;;;26.90;66.60;;;;;;5054256;28;20025;-62
2023/08/14 08:07:12;;;;;;;3.13;1.92;;;27.00;66.40;;;;;;5058135;28;20024;-62
2023/08/14 08:09:37;;;;;;;5.20;1.65;;;27.10;65.80;;;;;;5056935;28;20503;-62
2023/08/14 08:12:03;;;;;;;3.95;2.00;;;27.20;65.60;;;;;;5064238;28;20048;-62
2023/08/14 08:14:29;;;;;;;3.53;1.80;;;27.30;65.10;;;;;;5060924;28;20028;-64
2023/08/14 08:16:55;;;;;;;3.03;1.77;;;27.40;65.00;;;;;;5065294;28;20036;-62
2023/08/14 08:19:21;;;;;;;4.97;1.90;;;27.50;64.60;;;;;;5059087;28;20689;-62
2023/08/14 08:21:47;;;;;;;2.58;1.80;;;27.60;64.00;;;;;;5063889;28;20033;-61
2023/08/14 08:24:13;;;;;;;3.80;1.95;;;27.70;63.70;;;;;;5068999;28;20024;-61
2023/08/14 08:26:39;;;;;;;1.95;1.65;;;27.80;63.80;;;;;;5065236;28;20501;-62
2023/08/14 08:29:07;;;;;;;2.53;1.45;;;27.90;64.00;;;;;;5054119;28;20099;-63
2023/08/14 08:31:33;;;;;;;3.05;1.77;;;28.00;63.80;;;;;;5061026;28;20071;-63
2023/08/14 08:33:59;;;;;;;2.53;1.40;;;28.10;63.20;;;;;;5053988;28;20448;-63
2023/08/14 08:36:24;;;;;;;4.03;1.40;;;28.10;62.70;;;;;;5058046;28;20027;-63
2023/08/14 08:38:50;;;;;;;2.10;1.35;;;28.20;62.00;;;;;;5061649;28;20017;-63
2023/08/14 08:41:23;;;;;;;1.58;1.33;;;28.30;61.50;;;;;;5058153;28;20132;-63
2023/08/14 08:44:04;;;;;;;2.13;1.30;;;28.40;61.00;;;;;;5061979;28;20111;-63
2023/08/14 08:46:35;;;;;;;1.63;1.33;;;28.40;60.30;;;;;;5066746;28;20049;-62
2023/08/14 08:49:02;;;;;;;6.15;1.55;;;28.50;60.60;;;;;;5069349;28;20513;-62
2023/08/14 08:51:29;;;;;;;1.92;1.60;;;28.60;60.80;;;;;;5059056;28;20036;-63
2023/08/14 08:53:55;;;;;;;2.45;1.30;;;28.60;60.60;;;;;;5066915;28;20051;-63
2023/08/14 08:56:22;;;;;;;6.55;1.55;;;28.70;60.20;;;;;;5065126;28;20028;-63
2023/08/14 08:58:49;;;;;;;1.42;1.20;;;28.80;59.70;;;;;;5054368;28;20036;-63
2023/08/14 09:01:15;;;;;;;1.80;1.20;;;28.90;59.70;;;;;;5058056;28;20016;-63
2023/08/14 09:03:41;;;;;;;4.50;1.80;;;29.00;59.60;;;;;;5063032;28;20024;-62
2023/08/14 09:06:07;;;;;;;2.10;1.40;;;29.10;59.50;;;;;;5070066;28;20044;-63
2023/08/14 09:08:32;;;;;;;1.83;1.40;;;29.20;59.50;;;;;;5069969;28;20511;-64
2023/08/14 09:10:58;;;;;;;5.65;2.00;;;29.30;59.00;;;;;;5059074;28;20023;-62
2023/08/14 09:13:24;;;;;;;4.15;2.10;;;29.40;59.40;;;;;;5069712;28;20032;-63
2023/08/14 09:15:52;;;;;;;4.25;1.73;;;29.40;59.00;;;;;;5067334;28;20048;-63
2023/08/14 09:18:17;;;;;;;2.70;1.73;;;29.50;58.90;;;;;;5062245;28;20037;-63
2023/08/14 09:20:44;;;;;;;3.17;1.80;;;29.60;59.30;;;;;;5058064;28;20039;-63
2023/08/14 09:23:12;;;;;;;3.28;1.60;;;29.60;58.50;;;;;;5062880;28;20813;-63
2023/08/14 09:25:44;;;;;;;8.70;1.80;;;29.70;58.50;;;;;;5070611;28;20048;-62
2023/08/14 09:28:10;;;;;;;3.88;1.80;;;29.80;57.90;;;;;;5060943;28;20082;-63
2023/08/14 09:30:37;;;;;;;3.38;2.03;;;29.80;58.20;;;;;;5062777;28;20028;-62
2023/08/14 09:33:08;;;;;;;4.53;1.40;;;29.90;58.00;;;;;;5061061;28;20021;-62
2023/08/14 09:35:34;;;;;;;3.58;1.88;;;29.90;57.80;;;;;;5061365;28;20040;-62
2023/08/14 09:38:00;;;;;;;3.53;1.83;;;30.00;58.10;;;;;;5049463;28;20024;-62
2023/08/14 09:40:25;;;;;;;3.85;1.73;;;30.10;57.90;;;;;;5068745;28;20070;-62
2023/08/14 09:42:52;;;;;;;2.13;1.55;;;30.20;57.30;;;;;;5063798;28;20537;-62
2023/08/14 09:45:23;;;;;;;2.90;1.80;;;30.20;57.10;;;;;;5070468;28;20031;-63
2023/08/14 09:47:50;;;;;;;2.78;1.52;;;30.30;57.40;;;;;;5059160;28;20499;-63
2023/08/14 09:50:19;;;;;;;2.67;1.55;;;30.40;57.20;;;;;;5068212;28;20490;-61
2023/08/14 09:52:45;;;;;;;3.78;1.80;;;30.40;56.60;;;;;;5059817;28;20032;-62
2023/08/14 09:55:13;;;;;;;3.40;1.80;;;30.50;56.40;;;;;;5064476;28;20037;-62
2023/08/14 09:57:40;;;;;;;3.33;2.05;;;30.50;56.30;;;;;;5066045;28;20652;-62
2023/08/14 10:00:06;;;;;;;3.22;1.73;;;30.50;56.10;;;;;;5066538;28;20451;-63
2023/08/14 10:02:34;;;;;;;3.58;2.25;;;30.70;56.30;;;;;;5059600;28;20406;-62
2023/08/14 10:05:03;;;;;;;2.60;1.67;;;30.60;56.10;;;;;;5070185;28;20063;-62
2023/08/14 10:07:31;;;;;;;3.35;1.90;;;30.70;56.20;;;;;;5060320;28;20484;-62
2023/08/14 10:09:59;;;;;;;4.25;2.10;;;30.70;55.70;;;;;;5055074;28;20109;-63
2023/08/14 10:12:32;;;;;;;3.03;2.05;;;30.70;56.00;;;;;;5059127;28;21296;-61
2023/08/14 10:15:11;;;;;;;4.77;2.00;;;30.80;56.40;;;;;;5056800;28;20082;-62
2023/08/14 10:17:51;;;;;;;2.50;1.60;;;30.90;56.10;;;;;;5059756;28;20024;-62
2023/08/14 10:20:18;;;;;;;1.38;1.20;;;31.00;56.50;;;;;;5053446;28;20112;-63
2023/08/14 10:22:45;;;;;;;2.72;1.45;;;31.10;56.30;;;;;;5061445;28;20049;-62
2023/08/14 10:25:12;;;;;;;2.70;1.67;;;31.20;56.10;;;;;;5064725;28;20020;-64
2023/08/14 10:27:39;;;;;;;7.53;1.80;;;31.30;55.70;;;;;;5063799;28;20029;-63
2023/08/14 10:30:05;;;;;;;5.03;1.67;;;31.50;54.90;;;;;;5064285;28;20028;-62
2023/08/14 10:32:31;;;;;;;3.58;2.00;;;31.40;54.70;;;;;;5065935;28;20024;-62
2023/08/14 10:34:57;;;;;;;3.17;1.88;;;31.50;54.90;;;;;;5059985;28;20135;-62
2023/08/14 10:37:44;;;;;;;3.10;1.77;;;31.50;55.10;;;;;;5065048;28;20688;-63
2023/08/14 10:40:20;;;;;;;2.90;1.55;;;31.60;55.10;;;;;;5060867;28;20375;-63
2023/08/14 10:42:47;;;;;;;3.25;1.75;;;31.60;54.50;;;;;;5060853;28;20031;-63
2023/08/14 10:45:17;;;;;;;2.65;1.60;;;31.80;55.40;;;;;;5064887;28;20032;-62
2023/08/14 10:47:44;;;;;;;2.30;1.58;;;31.90;54.70;;;;;;5053643;28;20041;-63
2023/08/14 10:50:27;;;;;;;4.13;1.98;;;32.00;54.10;;;;;;5063578;28;20032;-63
2023/08/14 10:52:54;;;;;;;3.58;1.50;;;32.00;53.40;;;;;;5067204;28;20029;-64
2023/08/14 10:55:25;;;;;;;2.10;1.30;;;32.10;53.30;;;;;;5062249;28;20036;-62
2023/08/14 10:57:53;;;;;;;3.03;1.65;;;32.20;52.50;;;;;;5053588;28;20485;-62
2023/08/14 11:00:21;;;;;;;1.63;1.42;;;32.30;52.10;;;;;;5066457;28;20020;-62
2023/08/14 11:02:52;;;;;;;2.10;1.40;;;32.30;52.30;;;;;;5058548;28;20033;-63
2023/08/14 11:05:18;;;;;;;3.92;1.38;;;32.40;52.20;;;;;;5061758;28;20028;-63
2023/08/14 11:08:05;;;;;;;3.03;1.73;;;32.40;52.40;;;;;;5062144;28;20034;-63
2023/08/14 11:10:33;;;;;;;4.10;1.92;;;32.50;52.70;;;;;;5066360;28;20067;-64
2023/08/14 11:13:00;;;;;;;5.10;1.50;;;32.50;52.10;;;;;;5060693;28;20032;-63
2023/08/14 11:15:25;;;;;;;3.38;1.90;;;32.60;52.10;;;;;;5061809;28;20032;-63
2023/08/14 11:17:53;;;;;;;2.08;1.60;;;32.70;51.80;;;;;;5064127;28;20052;-62
2023/08/14 11:20:19;;;;;;;4.18;2.05;;;32.80;51.60;;;;;;5064129;28;20035;-64
2023/08/14 11:22:45;;;;;;;3.55;1.30;;;32.80;51.10;;;;;;5068004;28;20415;-63
2023/08/14 11:25:15;;;;;;;4.07;1.90;;;32.90;50.90;;;;;;5064267;28;20972;-63
2023/08/14 11:27:47;;;;;;;6.55;1.77;;;33.00;50.00;;;;;;5060313;28;20467;-62
2023/08/14 11:30:13;;;;;;;3.88;2.10;;;33.00;50.30;;;;;;5055830;28;20017;-62
2023/08/14 11:32:39;;;;;;;2.28;1.60;;;33.00;50.80;;;;;;5060562;28;20028;-64
2023/08/14 11:35:06;;;;;;;3.47;1.73;;;33.10;50.90;;;;;;5066574;28;20046;-64
2023/08/14 11:37:32;;;;;;;2.55;1.63;;;33.20;49.70;;;;;;5069136;28;20044;-63
2023/08/14 11:40:04;;;;;;;6.88;1.80;;;33.30;49.50;;;;;;5065460;28;20063;-63
2023/08/14 11:42:32;;;;;;;2.50;1.23;;;33.30;48.60;;;;;;5066566;28;20483;-63
2023/08/14 11:45:02;;;;;;;3.15;1.48;;;33.40;49.70;;;;;;5061787;28;20487;-63
2023/08/14 11:47:36;;;;;;;2.88;1.38;;;33.50;49.80;;;;;;5061742;28;20025;-64
2023/08/14 11:50:04;;;;;;;10.82;1.52;;;33.60;48.40;;;;;;5058517;28;20032;-62
2023/08/14 11:52:30;;;;;;;3.03;1.40;;;33.60;48.10;;;;;;5056135;28;20551;-63
2023/08/14 11:54:57;;;;;;;3.10;1.60;;;33.70;48.20;;;;;;5059725;28;20032;-64
2023/08/14 11:57:25;;;;;;;4.60;2.15;;;33.70;48.40;;;;;;5056744;28;20412;-62
2023/08/14 11:59:52;;;;;;;2.45;1.30;;;33.80;48.00;;;;;;5055657;28;20067;-62
2023/08/14 12:02:19;;;;;;;3.00;1.38;;;33.80;48.10;;;;;;5052184;28;20051;-63
2023/08/14 12:04:55;;;;;;;4.38;1.67;;;33.90;47.60;;;;;;5059462;28;20039;-63
2023/08/14 12:07:21;;;;;;;2.80;1.40;;;33.90;47.50;;;;;;5058001;28;20108;-62
2023/08/14 12:09:49;;;;;;;2.88;1.40;;;34.00;47.20;;;;;;5068122;28;20581;-62
2023/08/14 12:12:16;;;;;;;3.17;1.70;;;34.00;47.00;;;;;;5069065;28;20483;-62
2023/08/14 12:14:46;;;;;;;2.75;1.50;;;34.00;46.80;;;;;;5056355;28;20048;-62
2023/08/14 12:17:13;;;;;;;2.28;1.25;;;34.10;46.50;;;;;;5059045;28;20032;-62
2023/08/14 12:19:40;;;;;;;2.95;1.63;;;34.10;47.30;;;;;;5059878;28;20912;-62
2023/08/14 12:22:06;;;;;;;2.90;1.58;;;34.10;46.90;;;;;;5062747;28;20509;-62
2023/08/14 12:24:39;;;;;;;2.58;1.60;;;34.30;48.00;;;;;;5064036;28;20025;-62
2023/08/14 12:27:19;;;;;;;1.77;1.25;;;34.30;47.30;;;;;;5063641;28;20032;-64
2023/08/14 12:29:45;;;;;;;3.90;1.80;;;34.40;47.20;;;;;;5064343;28;20527;-63
2023/08/14 12:32:11;;;;;;;6.90;1.50;;;34.50;47.10;;;;;;5057341;28;20078;-63
2023/08/14 12:34:37;;;;;;;3.55;1.50;;;34.60;47.10;;;;;;5063482;28;20081;-63
2023/08/14 12:37:07;;;;;;;2.20;1.40;;;34.70;47.20;;;;;;5054312;28;20020;-63
2023/08/14 12:39:33;;;;;;;3.08;1.48;;;34.80;47.40;;;;;;5065331;28;20024;-63
2023/08/14 12:42:00;;;;;;;2.00;1.40;;;34.90;46.10;;;;;;5063768;28;20677;-63
2023/08/14 12:44:26;;;;;;;1.90;1.33;;;35.00;46.00;;;;;;5067079;28;20056;-62